createdAt,value
2023-01-13T00:01:54.381Z,11.50
2023-01-13T00:04:22.851Z,10.30
2023-01-13T00:06:49.996Z,10.90
2023-01-13T00:09:17.081Z,11.40
2023-01-13T00:11:44.349Z,11.20
2023-01-13T00:14:11.912Z,11.70
2023-01-13T00:16:38.984Z,10.70
2023-01-13T00:19:06.047Z,7.40
2023-01-13T00:21:34.772Z,7.90
2023-01-13T00:24:03.591Z,7.70
2023-01-13T00:26:31.073Z,10.80
2023-01-13T00:28:59.784Z,10.30
2023-01-13T00:31:27.750Z,8.70
2023-01-13T00:33:56.951Z,9.00
2023-01-13T00:36:23.991Z,13.20
2023-01-13T00:42:03.503Z,13.80
2023-01-13T00:44:33.617Z,12.60
2023-01-13T00:47:01.484Z,13.30
2023-01-13T00:49:28.585Z,10.60
2023-01-13T00:51:56.273Z,11.80
2023-01-13T00:54:23.496Z,13.00
2023-01-13T00:56:54.154Z,16.40
2023-01-13T00:59:21.379Z,13.30
2023-01-13T01:01:49.614Z,13.80
2023-01-13T01:04:16.920Z,14.60
2023-01-13T01:06:44.790Z,13.00
2023-01-13T01:09:15.851Z,12.10
2023-01-13T01:11:43.176Z,11.80
2023-01-13T01:14:11.852Z,11.30
2023-01-13T01:16:40.776Z,11.20
2023-01-13T01:19:08.127Z,11.50
2023-01-13T01:21:36.155Z,12.40
2023-01-13T01:24:03.917Z,9.80
2023-01-13T01:26:31.707Z,13.00
2023-01-13T01:29:04.089Z,12.90
2023-01-13T01:31:32.801Z,12.80
2023-01-13T01:34:00.650Z,12.90
2023-01-13T01:36:30.570Z,13.40
2023-01-13T01:38:58.764Z,12.60
2023-01-13T01:41:28.002Z,12.80
2023-01-13T01:44:07.503Z,13.00
2023-01-13T01:46:40.486Z,10.20
2023-01-13T01:49:16.837Z,10.10
2023-01-13T01:51:55.946Z,7.70
2023-01-13T01:54:29.622Z,6.70
2023-01-13T01:56:56.805Z,7.10
2023-01-13T01:59:28.471Z,8.80
2023-01-13T02:01:56.435Z,8.20
2023-01-13T02:04:29.315Z,9.30
2023-01-13T02:06:57.064Z,10.10
2023-01-13T02:09:25.875Z,11.30
2023-01-13T02:12:13.331Z,10.30
2023-01-13T02:14:40.403Z,11.40
2023-01-13T02:17:41.312Z,9.50
2023-01-13T02:20:14.832Z,8.20
2023-01-13T02:23:02.912Z,10.20
2023-01-13T02:25:58.832Z,11.70
2023-01-13T02:29:10.175Z,10.50
2023-01-13T02:31:43.201Z,11.00
2023-01-13T02:34:18.115Z,12.40
2023-01-13T02:37:11.697Z,11.70
2023-01-13T02:44:11.679Z,12.20
2023-01-13T02:47:02.617Z,11.00
2023-01-13T02:49:34.063Z,9.30
2023-01-13T02:52:30.132Z,10.40
2023-01-13T02:54:59.580Z,10.60
2023-01-13T02:57:29.409Z,9.70
2023-01-13T02:59:58.167Z,9.20
2023-01-13T03:02:26.623Z,10.40
2023-01-13T03:04:56.363Z,10.70
2023-01-13T03:07:46.315Z,11.60
2023-01-13T03:10:44.535Z,13.20
2023-01-13T03:13:33.878Z,13.90
2023-01-13T03:16:09.795Z,12.30
2023-01-13T03:18:46.369Z,15.30
2023-01-13T03:21:28.193Z,17.20
2023-01-13T03:24:09.958Z,18.20
2023-01-13T03:26:51.182Z,18.70
2023-01-13T03:29:28.974Z,12.60
2023-01-13T03:32:21.634Z,13.10
2023-01-13T03:34:57.291Z,13.00
2023-01-13T03:37:34.699Z,11.50
2023-01-13T03:40:05.218Z,9.40
2023-01-13T03:42:33.220Z,12.10
2023-01-13T03:45:10.744Z,10.10
2023-01-13T03:47:46.453Z,9.20
2023-01-13T03:50:19.907Z,10.40
2023-01-13T03:52:49.765Z,11.60
2023-01-13T03:55:27.582Z,11.30
2023-01-13T03:58:14.844Z,14.00
2023-01-13T04:01:12.152Z,14.20
2023-01-13T04:03:45.769Z,10.20
2023-01-13T04:06:42.451Z,10.10
2023-01-13T04:09:32.057Z,12.00
2023-01-13T04:12:22.640Z,10.20
2023-01-13T04:14:49.624Z,10.50
2023-01-13T04:17:16.733Z,10.00
2023-01-13T04:19:44.484Z,11.10
2023-01-13T04:22:11.740Z,11.10
2023-01-13T04:24:38.788Z,10.80
2023-01-13T04:27:06.964Z,10.00
2023-01-13T04:29:34.349Z,9.70
2023-01-13T04:32:02.263Z,10.40
2023-01-13T04:34:29.973Z,10.90
2023-01-13T04:36:57.419Z,10.70
2023-01-13T04:39:24.666Z,11.40
2023-01-13T04:42:02.751Z,10.10
2023-01-13T04:44:35.557Z,9.40
2023-01-13T04:47:02.793Z,8.70
2023-01-13T04:49:30.256Z,9.80
2023-01-13T04:51:58.632Z,12.00
2023-01-13T04:54:25.924Z,10.70
2023-01-13T04:56:54.815Z,11.00
2023-01-13T04:59:21.986Z,10.90
2023-01-13T05:01:49.129Z,13.80
2023-01-13T05:04:17.457Z,10.30
2023-01-13T05:06:44.660Z,11.80
2023-01-13T05:09:13.584Z,11.40
2023-01-13T05:11:59.251Z,12.80
2023-01-13T05:14:45.737Z,16.80
2023-01-13T05:17:20.774Z,12.50
2023-01-13T05:19:48.141Z,12.50
2023-01-13T05:22:34.428Z,10.90
2023-01-13T05:25:21.223Z,10.90
2023-01-13T05:27:49.752Z,10.30
2023-01-13T05:30:17.313Z,11.50
2023-01-13T05:32:45.019Z,11.60
2023-01-13T05:35:12.092Z,10.70
2023-01-13T05:37:40.712Z,12.00
2023-01-13T05:40:27.575Z,10.20
2023-01-13T05:43:21.432Z,11.50
2023-01-13T05:45:58.887Z,12.00
2023-01-13T05:48:37.521Z,10.90
2023-01-13T05:51:29.117Z,12.60
2023-01-13T05:53:56.550Z,14.00
2023-01-13T05:56:34.460Z,13.40
2023-01-13T05:59:02.554Z,12.00
2023-01-13T06:01:30.205Z,11.30
2023-01-13T06:03:58.209Z,13.40
2023-01-13T06:06:25.568Z,12.40
2023-01-13T06:08:52.930Z,10.40
2023-01-13T06:11:20.044Z,10.40
2023-01-13T06:13:47.702Z,10.20
2023-01-13T06:16:15.307Z,11.50
2023-01-13T06:18:42.487Z,11.40
2023-01-13T06:21:09.779Z,10.40
2023-01-13T06:23:39.183Z,11.30
2023-01-13T06:26:16.566Z,11.80
2023-01-13T06:28:44.281Z,10.40
2023-01-13T06:31:11.909Z,11.80
2023-01-13T06:33:42.048Z,10.10
2023-01-13T06:40:15.728Z,9.30
2023-01-13T06:43:01.482Z,8.40
2023-01-13T06:45:29.558Z,6.70
2023-01-13T06:48:05.596Z,7.10
2023-01-13T06:50:32.858Z,8.40
2023-01-13T06:53:02.668Z,8.80
2023-01-13T06:55:32.774Z,8.00
2023-01-13T06:58:00.039Z,7.80
2023-01-13T07:00:27.407Z,6.80
2023-01-13T07:02:54.733Z,7.40
2023-01-13T07:05:25.250Z,7.90
2023-01-13T07:07:53.410Z,8.80
2023-01-13T07:10:22.808Z,7.80
2023-01-13T07:13:08.650Z,10.00
2023-01-13T07:15:45.840Z,9.40
2023-01-13T07:18:16.793Z,8.10
2023-01-13T07:20:44.025Z,10.40
2023-01-13T07:23:11.263Z,9.10
2023-01-13T07:25:38.726Z,9.80
2023-01-13T07:28:06.012Z,8.00
2023-01-13T07:30:33.855Z,10.40
2023-01-13T07:33:05.649Z,9.50
2023-01-13T07:35:34.845Z,8.70
2023-01-13T07:38:07.162Z,9.50
2023-01-13T07:40:34.354Z,8.40
2023-01-13T07:43:20.262Z,9.00
2023-01-13T07:45:49.287Z,9.10
2023-01-13T07:48:17.652Z,7.90
2023-01-13T07:50:45.477Z,8.10
2023-01-13T07:53:13.762Z,8.10
2023-01-13T07:55:43.694Z,9.60
2023-01-13T07:58:20.139Z,8.00
2023-01-13T08:00:52.803Z,9.10
2023-01-13T08:03:32.151Z,6.70
2023-01-13T08:06:11.606Z,6.80
2023-01-13T08:08:40.646Z,7.90
2023-01-13T08:13:21.083Z,7.40
2023-01-13T08:15:57.649Z,8.70
2023-01-13T08:18:35.034Z,7.70
2023-01-13T08:22:37.828Z,9.20
2023-01-13T08:25:22.622Z,8.50
2023-01-13T08:27:51.437Z,8.70
2023-01-13T08:30:20.354Z,9.40
2023-01-13T08:32:47.927Z,10.00
2023-01-13T08:35:15.707Z,10.20
2023-01-13T08:37:43.933Z,9.80
2023-01-13T08:40:11.878Z,9.70
2023-01-13T08:42:39.502Z,8.40
2023-01-13T08:45:23.365Z,9.20
2023-01-13T08:47:56.061Z,11.30
2023-01-13T08:50:28.237Z,9.10
2023-01-13T08:53:02.611Z,9.50
2023-01-13T08:55:31.391Z,9.60
2023-01-13T08:58:15.315Z,10.10
2023-01-13T09:00:44.992Z,8.50
2023-01-13T09:03:13.134Z,9.40
2023-01-13T09:05:42.153Z,8.00
2023-01-13T09:08:15.324Z,8.50
2023-01-13T09:10:45.657Z,8.30
2023-01-13T09:13:16.763Z,8.60
2023-01-13T09:15:46.079Z,8.80
2023-01-13T09:18:14.267Z,8.90
2023-01-13T09:20:41.884Z,9.00
2023-01-13T09:23:11.003Z,11.40
2023-01-13T09:25:40.519Z,8.90
2023-01-13T09:28:08.031Z,8.00
2023-01-13T09:30:36.687Z,6.60
2023-01-13T09:33:27.917Z,8.40
2023-01-13T09:36:06.677Z,8.70
2023-01-13T09:38:33.888Z,7.60
2023-01-13T09:41:21.465Z,9.40
2023-01-13T09:43:54.765Z,7.20
2023-01-13T09:46:43.070Z,9.90
2023-01-13T09:49:15.593Z,8.20
2023-01-13T09:51:45.919Z,8.50
2023-01-13T09:54:26.479Z,10.50
2023-01-13T09:56:53.890Z,10.20
2023-01-13T09:59:33.900Z,10.10
2023-01-13T10:02:18.308Z,9.40
2023-01-13T10:05:13.045Z,11.10
2023-01-13T10:07:56.506Z,10.70
2023-01-13T10:10:38.388Z,8.90
2023-01-13T10:13:25.351Z,7.60
2023-01-13T10:16:18.131Z,8.80
2023-01-13T10:18:59.633Z,8.60
2023-01-13T14:08:24.695Z,17.30
2023-01-13T14:20:22.920Z,13.20
2023-01-13T14:25:53.025Z,15.60
2023-01-13T14:31:41.186Z,15.80
2023-01-13T14:34:32.589Z,17.60
2023-01-13T14:37:33.196Z,13.90
2023-01-13T14:40:51.989Z,15.10
2023-01-13T14:51:08.266Z,16.30
2023-01-13T15:31:49.701Z,16.90
2023-01-13T16:11:24.872Z,10.20
2023-01-13T20:31:40.632Z,17.80
2023-01-13T20:41:46.361Z,20.70
2023-01-13T20:44:29.969Z,20.90
2023-01-13T20:47:04.757Z,21.00
2023-01-13T20:49:51.919Z,19.30
2023-01-13T21:12:01.650Z,20.40
2023-01-13T21:16:38.024Z,22.50
2023-01-13T21:26:37.377Z,17.60
2023-01-13T21:31:26.929Z,20.50
2023-01-13T21:34:18.238Z,21.00
2023-01-13T21:37:14.862Z,21.40
2023-01-13T21:39:56.631Z,21.70
2023-01-13T21:46:57.184Z,20.20
2023-01-13T21:49:56.703Z,17.50
2023-01-13T21:52:55.072Z,18.80
2023-01-13T21:55:45.623Z,20.20
2023-01-13T21:58:18.084Z,20.80
2023-01-13T22:00:51.188Z,25.70
2023-01-13T22:07:54.259Z,21.70
2023-01-13T22:10:35.259Z,22.10
2023-01-13T22:42:06.010Z,22.30
2023-01-13T22:47:04.275Z,20.30
2023-01-13T22:49:33.755Z,20.30
2023-01-13T22:52:01.373Z,20.80
2023-01-13T22:54:30.469Z,20.90
2023-01-13T22:57:18.842Z,23.10
2023-01-13T23:00:01.821Z,20.90
2023-01-13T23:02:34.285Z,22.90
2023-01-13T23:05:03.675Z,20.70
2023-01-13T23:07:32.978Z,19.60
2023-01-13T23:10:02.916Z,20.00
2023-01-13T23:12:35.428Z,20.40
2023-01-13T23:15:04.186Z,20.80
2023-01-13T23:17:32.919Z,20.60
2023-01-13T23:20:01.249Z,19.70
2023-01-13T23:22:29.565Z,19.40
2023-01-13T23:24:58.140Z,23.00
2023-01-13T23:27:37.345Z,23.80
2023-01-13T23:30:07.303Z,26.20
2023-01-13T23:32:38.679Z,28.10
2023-01-13T23:35:07.013Z,24.20
2023-01-13T23:37:38.460Z,23.90
2023-01-13T23:43:27.245Z,24.50
2023-01-13T23:52:37.775Z,23.30
